Time;durP1;ratioP1;P1;durP2;ratioP2;P2;SDS_P1;SDS_P2;PMS_P1;PMS_P2;Temp;Humidity;BMP_temperature;BMP_pressure;BME280_temperature;BME280_humidity;BME280_pressure;Samples;Min_cycle;Max_cycle;Signal;HPM_P1;HPM_P2
2021/04/21 00:01:41;;;;;;;1.45;0.60;;;13.80;49.60;;;;;;4974182;28;20046;-80
2021/04/21 00:04:08;;;;;;;1.45;0.65;;;13.70;49.70;;;;;;4992982;28;20061;-79
2021/04/21 00:06:35;;;;;;;1.58;0.38;;;13.60;49.80;;;;;;4991030;28;20026;-79
2021/04/21 00:09:05;;;;;;;0.75;0.22;;;13.60;49.90;;;;;;4973581;28;20041;-78
2021/04/21 00:11:32;;;;;;;1.50;0.63;;;13.60;50.00;;;;;;4977448;28;20400;-79
2021/04/21 00:13:58;;;;;;;1.30;0.30;;;13.60;50.10;;;;;;4974397;28;20511;-80
2021/04/21 00:16:24;;;;;;;1.38;0.28;;;13.60;50.10;;;;;;4975776;28;20030;-79
2021/04/21 00:18:50;;;;;;;0.93;0.40;;;13.60;50.20;;;;;;4992290;28;20038;-79
2021/04/21 00:21:16;;;;;;;5.32;0.90;;;13.50;50.20;;;;;;4992223;28;20033;-79
2021/04/21 00:23:43;;;;;;;0.77;0.30;;;13.50;50.30;;;;;;4992031;28;20400;-78
2021/04/21 00:26:15;;;;;;;1.35;0.50;;;13.50;50.50;;;;;;4975660;28;20042;-79
2021/04/21 00:28:41;;;;;;;1.42;0.50;;;13.50;50.60;;;;;;4993695;28;20037;-79
2021/04/21 00:31:08;;;;;;;2.53;0.47;;;13.40;50.50;;;;;;4992323;28;20046;-78
2021/04/21 00:33:35;;;;;;;1.02;0.50;;;13.40;50.70;;;;;;4992569;28;20037;-79
2021/04/21 00:36:05;;;;;;;3.97;0.68;;;13.40;50.70;;;;;;4992785;28;20038;-79
2021/04/21 00:38:32;;;;;;;1.27;0.43;;;13.40;50.80;;;;;;4989120;28;20045;-80
2021/04/21 00:41:16;;;;;;;2.42;0.60;;;13.30;50.80;;;;;;4975912;28;20687;-78
2021/04/21 00:43:52;;;;;;;1.88;0.30;;;13.30;50.90;;;;;;5026113;28;20033;-79
2021/04/21 00:46:36;;;;;;;1.58;0.60;;;13.30;51.00;;;;;;4991440;28;20515;-79
2021/04/21 00:49:16;;;;;;;3.63;0.68;;;13.20;51.00;;;;;;4990715;28;20049;-78
2021/04/21 00:51:55;;;;;;;1.88;1.02;;;13.20;51.00;;;;;;4991974;28;20061;-79
2021/04/21 00:54:46;;;;;;;1.08;0.40;;;13.20;51.10;;;;;;4977756;28;20030;-80
2021/04/21 00:57:24;;;;;;;3.42;1.20;;;13.20;51.20;;;;;;4993286;28;20037;-78
2021/04/21 01:00:00;;;;;;;1.33;0.57;;;13.10;51.10;;;;;;4993881;28;20034;-79
2021/04/21 01:02:39;;;;;;;1.30;0.50;;;13.10;51.10;;;;;;4991542;28;20042;-79
2021/04/21 01:05:14;;;;;;;1.90;0.63;;;13.10;51.10;;;;;;4988036;28;20050;-78
2021/04/21 01:07:41;;;;;;;3.65;0.77;;;13.10;51.10;;;;;;4977543;28;20049;-80
2021/04/21 01:10:08;;;;;;;3.15;0.68;;;13.10;51.20;;;;;;4992489;28;20033;-78
2021/04/21 01:12:34;;;;;;;1.33;0.75;;;13.00;51.30;;;;;;4975581;28;20561;-79
2021/04/21 01:15:03;;;;;;;3.85;0.93;;;13.00;51.30;;;;;;4991955;28;20498;-79
2021/04/21 01:17:29;;;;;;;1.20;0.75;;;13.00;51.40;;;;;;4974385;28;20038;-79
2021/04/21 01:20:04;;;;;;;0.35;0.28;;;13.00;51.50;;;;;;4990050;28;20026;-79
2021/04/21 01:22:42;;;;;;;3.38;0.98;;;12.90;51.50;;;;;;4994616;28;20392;-79
2021/04/21 01:25:27;;;;;;;1.52;0.65;;;12.90;51.60;;;;;;4993206;28;20057;-78
2021/04/21 01:28:03;;;;;;;1.23;0.80;;;12.90;51.60;;;;;;4991837;28;20496;-80
2021/04/21 01:30:30;;;;;;;3.60;1.55;;;12.80;51.60;;;;;;4988935;28;20041;-78
2021/04/21 01:33:01;;;;;;;1.52;0.65;;;12.80;51.60;;;;;;4992321;28;20522;-79
2021/04/21 01:35:28;;;;;;;2.30;0.35;;;12.80;51.70;;;;;;4991653;28;20054;-79
2021/04/21 01:37:55;;;;;;;0.98;0.52;;;12.80;51.70;;;;;;4974609;28;20415;-79
2021/04/21 01:40:30;;;;;;;0.80;0.38;;;12.80;51.80;;;;;;4991512;28;20504;-78
2021/04/21 01:43:00;;;;;;;1.58;0.60;;;12.70;51.80;;;;;;4991972;28;20034;-79
2021/04/21 01:45:28;;;;;;;5.50;0.57;;;12.70;51.90;;;;;;4991261;28;20050;-79
2021/04/21 01:47:58;;;;;;;3.83;0.63;;;12.70;51.90;;;;;;4990794;28;20043;-79
2021/04/21 01:50:24;;;;;;;1.67;0.43;;;12.60;51.90;;;;;;4990230;28;20045;-78
2021/04/21 01:52:54;;;;;;;0.88;0.38;;;12.60;52.00;;;;;;4975669;28;20035;-79
2021/04/21 01:55:20;;;;;;;1.05;0.45;;;12.60;52.00;;;;;;4992360;28;20041;-78
2021/04/21 01:58:03;;;;;;;1.17;0.60;;;12.60;52.10;;;;;;4991645;28;20472;-79
2021/04/21 02:00:44;;;;;;;1.70;1.05;;;12.50;52.10;;;;;;4990517;28;20042;-78
2021/04/21 02:03:18;;;;;;;1.23;0.52;;;12.50;52.10;;;;;;4968723;28;20507;-78
2021/04/21 02:06:22;;;;;;;2.25;0.90;;;12.50;52.10;;;;;;4981472;28;20030;-78
2021/04/21 02:09:21;;;;;;;1.63;1.10;;;12.50;52.10;;;;;;4978498;28;20041;-78
2021/04/21 02:12:15;;;;;;;3.92;0.45;;;12.40;52.10;;;;;;4983562;28;20030;-78
2021/04/21 02:15:18;;;;;;;1.77;0.82;;;12.40;52.20;;;;;;4979180;28;20030;-78
2021/04/21 02:18:05;;;;;;;1.45;0.85;;;12.40;52.30;;;;;;4987937;28;20050;-79
2021/04/21 02:20:38;;;;;;;2.45;1.08;;;12.30;52.20;;;;;;4989393;28;20519;-79
2021/04/21 02:23:22;;;;;;;1.17;0.68;;;12.30;52.30;;;;;;4975167;28;20042;-78
2021/04/21 02:26:04;;;;;;;2.70;0.75;;;12.30;52.30;;;;;;4991977;28;20399;-78
2021/04/21 02:28:42;;;;;;;3.55;1.42;;;12.20;52.30;;;;;;4991161;28;20042;-78
2021/04/21 02:31:23;;;;;;;0.90;0.60;;;12.20;52.30;;;;;;4990615;28;20046;-78
2021/04/21 02:34:01;;;;;;;2.20;1.10;;;12.20;52.40;;;;;;4989699;28;20031;-80
2021/04/21 02:36:36;;;;;;;4.10;0.93;;;12.20;52.40;;;;;;4980031;28;20041;-80
2021/04/21 02:39:18;;;;;;;1.30;0.73;;;12.20;52.50;;;;;;4995843;28;20049;-78
2021/04/21 02:41:53;;;;;;;1.00;0.40;;;12.10;52.50;;;;;;4978782;28;20026;-78
2021/04/21 02:44:49;;;;;;;1.98;0.70;;;12.10;52.60;;;;;;4995577;28;20034;-78
2021/04/21 02:47:51;;;;;;;4.03;0.88;;;12.00;52.70;;;;;;4974603;28;20415;-79
2021/04/21 02:50:38;;;;;;;2.35;0.82;;;12.00;52.80;;;;;;4979997;28;20049;-78
2021/04/21 02:53:16;;;;;;;1.67;0.77;;;11.90;52.90;;;;;;4968739;28;20034;-79
2021/04/21 02:55:51;;;;;;;1.70;0.68;;;12.00;52.90;;;;;;4989604;28;20046;-79
2021/04/21 02:58:38;;;;;;;1.13;0.55;;;11.90;52.90;;;;;;4956206;28;20054;-79
2021/04/21 03:01:16;;;;;;;3.47;1.02;;;11.90;53.00;;;;;;4989411;28;20458;-79
2021/04/21 03:04:15;;;;;;;8.00;1.75;;;11.80;53.00;;;;;;4958627;28;20480;-78
2021/04/21 03:06:48;;;;;;;1.95;0.95;;;11.80;53.10;;;;;;4955784;28;20508;-82
2021/04/21 03:09:27;;;;;;;5.88;1.05;;;11.80;53.00;;;;;;4976856;28;20041;-81
2021/04/21 03:11:53;;;;;;;3.10;1.10;;;11.80;53.10;;;;;;4960113;28;20504;-82
2021/04/21 03:14:21;;;;;;;0.60;0.45;;;11.80;53.10;;;;;;4960042;28;20023;-82
2021/04/21 03:17:01;;;;;;;1.75;0.82;;;11.80;53.10;;;;;;4970137;28;20050;-84
2021/04/21 03:19:32;;;;;;;0.77;0.40;;;11.70;53.20;;;;;;4950821;28;20035;-84
2021/04/21 03:22:01;;;;;;;3.33;1.23;;;11.70;53.30;;;;;;4977399;28;20034;-84
2021/04/21 03:24:29;;;;;;;0.73;0.38;;;11.70;53.40;;;;;;4984395;28;20605;-84
2021/04/21 03:26:58;;;;;;;6.53;0.60;;;11.60;53.40;;;;;;4993148;28;20029;-84
2021/04/21 03:29:39;;;;;;;2.13;0.77;;;11.60;53.40;;;;;;4993438;28;20035;-83
2021/04/21 03:32:26;;;;;;;1.75;0.80;;;11.60;53.50;;;;;;4990846;28;20415;-83
2021/04/21 03:34:53;;;;;;;1.85;0.60;;;11.60;53.50;;;;;;4993422;28;20046;-82
2021/04/21 03:38:04;;;;;;;5.95;0.85;;;11.50;53.50;;;;;;4993643;28;20038;-82
2021/04/21 03:40:30;;;;;;;2.13;0.90;;;11.50;53.60;;;;;;4953026;28;20051;-84
2021/04/21 03:42:56;;;;;;;5.22;1.02;;;11.50;53.60;;;;;;4937969;29;20496;-83
2021/04/21 03:45:23;;;;;;;2.58;1.00;;;11.40;53.60;;;;;;4937175;28;20043;-82
2021/04/21 03:47:49;;;;;;;2.97;0.95;;;11.40;53.70;;;;;;4937472;29;20071;-84
2021/04/21 03:50:15;;;;;;;2.72;1.20;;;11.30;53.80;;;;;;4936430;28;20476;-83
2021/04/21 03:52:44;;;;;;;2.50;0.93;;;11.30;53.90;;;;;;4937067;29;20050;-85
2021/04/21 03:55:10;;;;;;;9.35;1.90;;;11.30;53.90;;;;;;4953973;28;20039;-83
2021/04/21 03:57:45;;;;;;;3.50;1.13;;;11.30;53.90;;;;;;4953080;28;20488;-85
2021/04/21 04:00:14;;;;;;;6.13;1.02;;;11.30;53.90;;;;;;4937297;28;20027;-85
2021/04/21 04:02:40;;;;;;;2.67;0.95;;;11.30;54.00;;;;;;4921690;28;20035;-82
2021/04/21 04:05:08;;;;;;;0.95;0.77;;;11.30;54.00;;;;;;4918482;28;20496;-82
2021/04/21 04:07:39;;;;;;;0.90;0.65;;;11.30;54.10;;;;;;4934164;29;20054;-81
2021/04/21 04:10:06;;;;;;;1.75;1.02;;;11.30;54.10;;;;;;4969228;28;20039;-82
2021/04/21 04:12:32;;;;;;;4.22;0.95;;;11.30;54.20;;;;;;4937425;29;20050;-81
2021/04/21 04:14:58;;;;;;;1.98;0.93;;;11.20;54.10;;;;;;4920137;29;20027;-82
2021/04/21 04:17:24;;;;;;;1.85;0.77;;;11.20;54.20;;;;;;4984667;28;20042;-81
2021/04/21 04:19:50;;;;;;;10.40;1.50;;;11.20;54.20;;;;;;4991736;28;20038;-81
2021/04/21 04:22:18;;;;;;;6.32;0.85;;;11.10;54.30;;;;;;4974021;28;20434;-81
2021/04/21 04:24:47;;;;;;;2.47;0.95;;;11.10;54.40;;;;;;4993033;28;20038;-81
2021/04/21 04:27:15;;;;;;;2.80;0.65;;;11.10;54.40;;;;;;4993664;28;20403;-81
2021/04/21 04:29:42;;;;;;;2.08;1.35;;;11.10;54.40;;;;;;4994223;28;20046;-81
2021/04/21 04:32:12;;;;;;;3.58;1.00;;;11.00;54.40;;;;;;4992454;28;20034;-82
2021/04/21 04:34:39;;;;;;;3.03;1.58;;;11.00;54.50;;;;;;4995050;28;20502;-82
2021/04/21 04:37:05;;;;;;;2.47;0.73;;;11.00;54.50;;;;;;4992249;28;20041;-82
2021/04/21 04:39:31;;;;;;;2.75;1.00;;;11.00;54.60;;;;;;4992575;28;20042;-82
2021/04/21 04:41:57;;;;;;;1.75;1.27;;;10.90;54.60;;;;;;4992764;28;20388;-81
2021/04/21 04:44:24;;;;;;;3.97;1.20;;;10.90;54.60;;;;;;4992825;28;20040;-82
2021/04/21 04:46:50;;;;;;;2.05;0.82;;;10.90;54.60;;;;;;4991456;28;20495;-82
2021/04/21 04:49:17;;;;;;;0.70;0.30;;;10.90;54.70;;;;;;4991954;28;20049;-82
2021/04/21 04:51:45;;;;;;;2.40;1.00;;;10.80;54.70;;;;;;4992767;28;20038;-82
2021/04/21 04:54:13;;;;;;;2.63;1.23;;;10.80;54.80;;;;;;4992509;28;20033;-82
2021/04/21 04:56:41;;;;;;;4.00;1.80;;;10.80;54.90;;;;;;4992788;28;20365;-82
2021/04/21 04:59:08;;;;;;;3.58;1.13;;;10.70;54.90;;;;;;4991157;28;20046;-82
2021/04/21 05:01:41;;;;;;;1.75;1.00;;;10.70;54.90;;;;;;4977131;28;20089;-82
2021/04/21 05:04:07;;;;;;;2.55;1.02;;;10.70;54.90;;;;;;4992164;28;20030;-82
2021/04/21 05:06:35;;;;;;;1.88;1.02;;;10.70;54.90;;;;;;4973050;28;20043;-82
2021/04/21 05:09:04;;;;;;;1.15;0.55;;;10.70;54.90;;;;;;4987519;28;20037;-82
2021/04/21 05:11:31;;;;;;;2.58;1.10;;;10.70;54.90;;;;;;4977947;28;20034;-82
2021/04/21 05:13:57;;;;;;;3.47;1.60;;;10.70;54.90;;;;;;4975397;28;20037;-82
2021/04/21 05:16:26;;;;;;;1.92;0.80;;;10.70;54.90;;;;;;4968887;28;20035;-81
2021/04/21 05:19:23;;;;;;;2.10;0.73;;;10.70;55.00;;;;;;4970265;28;20046;-81
2021/04/21 05:22:08;;;;;;;4.82;0.82;;;10.70;55.00;;;;;;4967419;28;20405;-81
2021/04/21 05:24:57;;;;;;;6.10;1.17;;;10.70;55.00;;;;;;4967089;28;20473;-81
2021/04/21 05:27:32;;;;;;;3.08;1.58;;;10.60;55.00;;;;;;4972405;28;20026;-81
2021/04/21 05:30:24;;;;;;;2.88;1.25;;;10.70;55.00;;;;;;4973605;28;20038;-82
2021/04/21 05:33:12;;;;;;;2.53;1.38;;;10.70;55.00;;;;;;4962159;28;20034;-81
2021/04/21 05:35:56;;;;;;;1.63;0.70;;;10.70;55.00;;;;;;4985156;28;20034;-81
2021/04/21 05:38:50;;;;;;;2.28;1.00;;;10.70;55.00;;;;;;4992636;28;20046;-81
2021/04/21 05:41:43;;;;;;;5.05;1.42;;;10.70;55.00;;;;;;5006300;28;20034;-81
2021/04/21 05:44:54;;;;;;;2.20;1.05;;;10.70;54.90;;;;;;4991150;28;20057;-81
2021/04/21 05:47:26;;;;;;;11.75;0.85;;;10.90;54.70;;;;;;4990159;28;20057;-81
2021/04/21 05:50:19;;;;;;;1.88;0.88;;;11.10;54.50;;;;;;4993301;28;20039;-82
2021/04/21 05:53:13;;;;;;;1.48;0.60;;;11.20;54.40;;;;;;4994271;28;20041;-82
2021/04/21 05:56:11;;;;;;;0.98;0.57;;;11.40;54.20;;;;;;4996279;28;20026;-81
2021/04/21 05:58:51;;;;;;;4.32;1.48;;;11.60;54.00;;;;;;4995509;28;20050;-82
2021/04/21 06:01:32;;;;;;;2.40;1.42;;;11.80;53.70;;;;;;5009027;28;20034;-85
2021/04/21 06:03:58;;;;;;;3.13;1.05;;;12.00;53.60;;;;;;4995664;28;20483;-84
2021/04/21 06:06:25;;;;;;;3.17;1.00;;;12.10;53.50;;;;;;4995824;28;20022;-82
2021/04/21 06:08:51;;;;;;;1.75;0.30;;;12.20;53.50;;;;;;4979471;28;20035;-82
2021/04/21 06:11:23;;;;;;;2.60;1.45;;;12.20;53.50;;;;;;4995186;28;20046;-83
2021/04/21 06:13:54;;;;;;;2.13;0.95;;;12.30;53.60;;;;;;4979168;28;20046;-83
2021/04/21 06:16:20;;;;;;;1.30;0.88;;;12.40;53.60;;;;;;4994848;28;20034;-81
2021/04/21 06:19:00;;;;;;;1.55;0.55;;;12.40;53.70;;;;;;5027778;28;20522;-83
2021/04/21 06:21:29;;;;;;;2.20;0.82;;;12.40;53.80;;;;;;4993274;28;20042;-84
2021/04/21 06:23:56;;;;;;;3.42;1.20;;;12.40;53.90;;;;;;5007987;28;20070;-85
2021/04/21 06:26:27;;;;;;;3.35;0.93;;;12.50;53.90;;;;;;5024545;28;20050;-82
2021/04/21 06:29:09;;;;;;;2.20;1.08;;;12.60;53.80;;;;;;4992750;28;20023;-80
2021/04/21 06:31:38;;;;;;;2.97;1.27;;;12.80;53.60;;;;;;4993994;28;20053;-81
2021/04/21 06:34:05;;;;;;;2.20;1.13;;;12.90;53.50;;;;;;4994476;28;20045;-81
2021/04/21 06:36:37;;;;;;;1.45;0.73;;;13.00;53.40;;;;;;4990670;28;20411;-84
2021/04/21 06:39:03;;;;;;;1.35;0.52;;;13.10;53.30;;;;;;4975502;28;20034;-80
2021/04/21 06:41:29;;;;;;;1.98;1.05;;;13.20;53.20;;;;;;4992118;28;20042;-79
2021/04/21 06:43:56;;;;;;;2.95;1.00;;;13.30;53.20;;;;;;4977923;28;20026;-82
2021/04/21 06:46:23;;;;;;;2.47;1.08;;;13.50;53.20;;;;;;4991498;28;20030;-82
2021/04/21 06:48:57;;;;;;;1.92;0.85;;;13.60;53.10;;;;;;4990426;28;20042;-81
2021/04/21 06:51:25;;;;;;;4.38;0.77;;;13.70;52.90;;;;;;4974802;28;20026;-79
2021/04/21 06:53:52;;;;;;;0.82;0.60;;;13.80;52.70;;;;;;4974843;28;20030;-79
2021/04/21 06:56:32;;;;;;;3.53;1.13;;;13.90;52.70;;;;;;5024253;28;20023;-80
2021/04/21 06:58:59;;;;;;;0.73;0.47;;;14.10;52.70;;;;;;4994031;28;20042;-78
2021/04/21 07:01:26;;;;;;;1.38;0.80;;;14.10;52.50;;;;;;4974383;28;20035;-77
2021/04/21 07:03:53;;;;;;;2.20;0.80;;;14.10;52.50;;;;;;4967389;28;20038;-78
2021/04/21 07:06:21;;;;;;;2.15;0.75;;;14.20;52.50;;;;;;4992618;28;20026;-78
2021/04/21 07:08:47;;;;;;;2.08;0.70;;;14.30;52.40;;;;;;4994052;28;20034;-79
2021/04/21 07:11:13;;;;;;;7.25;1.05;;;14.30;52.30;;;;;;4977023;28;20049;-78
2021/04/21 07:13:44;;;;;;;4.32;1.02;;;14.40;52.40;;;;;;4977662;28;20034;-78
2021/04/21 07:16:16;;;;;;;3.50;0.80;;;14.50;52.30;;;;;;4989166;28;20381;-81
2021/04/21 07:18:51;;;;;;;1.27;0.50;;;14.50;52.30;;;;;;4988734;28;20183;-78
2021/04/21 07:21:17;;;;;;;2.25;0.55;;;14.60;52.20;;;;;;4978789;28;20647;-78
2021/04/21 07:23:53;;;;;;;0.25;0.17;;;14.60;52.10;;;;;;4993880;28;20042;-78
2021/04/21 07:26:26;;;;;;;1.58;0.35;;;14.70;52.10;;;;;;4994116;28;20042;-79
2021/04/21 07:28:52;;;;;;;2.72;1.00;;;14.80;52.00;;;;;;4990889;28;20026;-78
2021/04/21 07:31:18;;;;;;;2.15;0.55;;;15.00;51.80;;;;;;4973238;28;20034;-78
2021/04/21 07:33:46;;;;;;;5.55;1.05;;;15.10;51.70;;;;;;4993078;28;20042;-78
2021/04/21 07:36:17;;;;;;;1.48;0.47;;;15.10;51.60;;;;;;4984207;28;20042;-79
2021/04/21 07:38:43;;;;;;;4.15;1.02;;;15.20;51.60;;;;;;4993673;28;20041;-78
2021/04/21 07:41:09;;;;;;;2.08;0.75;;;15.30;51.50;;;;;;4993041;28;20033;-78
2021/04/21 07:43:46;;;;;;;0.25;0.10;;;15.30;51.40;;;;;;4992620;28;20037;-79
2021/04/21 07:46:14;;;;;;;2.53;0.85;;;15.30;51.50;;;;;;4993193;28;20042;-77
2021/04/21 07:48:41;;;;;;;1.90;0.80;;;15.30;51.50;;;;;;4993494;28;20043;-78
2021/04/21 07:51:16;;;;;;;0.75;0.35;;;15.40;51.50;;;;;;4993294;28;20391;-81
2021/04/21 07:53:59;;;;;;;1.40;0.60;;;15.70;51.20;;;;;;4993640;28;20033;-81
2021/04/21 07:56:35;;;;;;;1.73;1.05;;;15.90;50.80;;;;;;4975520;28;20049;-78
2021/04/21 07:59:13;;;;;;;1.55;0.68;;;16.00;50.60;;;;;;4973472;28;20049;-80
2021/04/21 08:01:39;;;;;;;2.33;0.95;;;16.00;50.70;;;;;;4994791;28;20041;-79
2021/04/21 08:04:24;;;;;;;0.10;0.10;;;16.20;50.50;;;;;;4990419;28;20364;-78
2021/04/21 08:06:54;;;;;;;2.70;0.70;;;16.40;50.30;;;;;;4990855;28;20024;-78
2021/04/21 08:09:21;;;;;;;2.22;0.93;;;16.30;50.10;;;;;;4993034;28;20493;-79
2021/04/21 08:12:05;;;;;;;0.60;0.20;;;16.30;50.20;;;;;;4993276;28;20027;-79
2021/04/21 08:14:50;;;;;;;4.93;0.80;;;16.40;50.20;;;;;;4977494;28;20038;-83
2021/04/21 08:17:17;;;;;;;4.20;1.35;;;16.50;50.00;;;;;;4991796;28;20106;-80
2021/04/21 08:19:48;;;;;;;1.23;0.70;;;16.70;49.70;;;;;;4990121;28;20049;-81
2021/04/21 08:22:25;;;;;;;0.60;0.20;;;16.80;49.60;;;;;;4985354;28;20368;-78
2021/04/21 08:24:51;;;;;;;1.65;0.63;;;17.00;49.50;;;;;;4986541;28;20031;-78
2021/04/21 08:27:20;;;;;;;2.47;0.95;;;17.30;49.70;;;;;;4989923;28;20391;-79
2021/04/21 08:29:46;;;;;;;1.88;0.93;;;17.30;48.90;;;;;;4992779;28;20038;-78
2021/04/21 08:32:18;;;;;;;2.45;0.60;;;17.50;48.90;;;;;;4992908;28;20102;-77
2021/04/21 08:34:54;;;;;;;2.05;0.90;;;17.70;48.60;;;;;;4991616;28;20034;-79
2021/04/21 08:37:20;;;;;;;2.78;1.45;;;17.90;48.30;;;;;;4992701;28;20034;-78
2021/04/21 08:39:46;;;;;;;2.95;0.95;;;18.00;48.20;;;;;;4992384;28;20050;-83
2021/04/21 08:42:13;;;;;;;4.18;0.75;;;18.20;48.10;;;;;;4976260;28;20054;-79
2021/04/21 08:44:42;;;;;;;2.33;0.95;;;18.40;47.80;;;;;;4994047;28;20411;-80
2021/04/21 08:47:11;;;;;;;1.15;0.43;;;18.50;47.50;;;;;;4992306;28;20148;-81
2021/04/21 08:49:39;;;;;;;6.00;1.80;;;18.60;47.40;;;;;;4994127;28;20495;-80
2021/04/21 08:52:05;;;;;;;1.70;0.93;;;18.60;47.30;;;;;;4992503;28;20042;-80
2021/04/21 08:54:32;;;;;;;1.35;0.38;;;18.70;47.40;;;;;;4991430;28;20030;-81
2021/04/21 08:56:59;;;;;;;2.50;0.82;;;18.80;47.30;;;;;;4992441;28;20033;-79
2021/04/21 08:59:25;;;;;;;5.00;0.82;;;19.00;47.10;;;;;;4992173;28;20041;-80
2021/04/21 09:01:51;;;;;;;2.20;0.77;;;19.20;46.70;;;;;;4958984;28;20038;-78
2021/04/21 09:04:17;;;;;;;1.85;0.75;;;19.40;46.50;;;;;;4993130;28;20037;-78
2021/04/21 09:06:46;;;;;;;1.88;0.60;;;19.50;46.40;;;;;;4991895;28;20026;-79
2021/04/21 09:09:13;;;;;;;7.47;0.95;;;19.70;46.20;;;;;;4990664;28;20054;-78
2021/04/21 09:11:39;;;;;;;2.63;1.33;;;19.90;46.00;;;;;;4992930;28;20034;-80
2021/04/21 09:14:06;;;;;;;3.05;0.90;;;20.00;45.80;;;;;;4992290;28;20031;-80
2021/04/21 09:16:32;;;;;;;3.63;0.98;;;20.20;45.60;;;;;;4968291;28;20061;-80
2021/04/21 09:18:58;;;;;;;1.85;0.75;;;20.30;45.40;;;;;;4986021;28;20033;-81
2021/04/21 09:21:32;;;;;;;1.90;0.55;;;20.50;45.20;;;;;;4970678;28;20054;-80
2021/04/21 09:23:58;;;;;;;4.53;1.30;;;20.50;45.10;;;;;;4990628;28;21307;-81
2021/04/21 09:26:27;;;;;;;1.35;0.77;;;20.60;45.00;;;;;;4972097;28;20033;-80
2021/04/21 09:28:54;;;;;;;2.40;0.60;;;20.70;45.00;;;;;;4983214;28;20045;-80
2021/04/21 09:31:22;;;;;;;0.47;0.28;;;20.90;44.80;;;;;;4980563;28;20519;-79
2021/04/21 09:34:06;;;;;;;0.45;0.10;;;21.10;44.50;;;;;;4977513;28;20042;-82
2021/04/21 09:36:34;;;;;;;8.70;0.90;;;21.10;44.30;;;;;;4984526;28;20386;-81
2021/04/21 09:39:13;;;;;;;3.80;1.38;;;21.00;44.30;;;;;;4988801;28;20483;-85
2021/04/21 09:41:40;;;;;;;8.52;1.70;;;21.10;44.20;;;;;;4974143;28;20388;-83
2021/04/21 09:44:24;;;;;;;1.80;0.82;;;21.20;44.10;;;;;;4974587;28;20411;-82
2021/04/21 09:46:50;;;;;;;1.38;0.30;;;21.20;44.00;;;;;;4989440;28;20050;-82
2021/04/21 09:49:36;;;;;;;0.47;0.32;;;21.30;43.90;;;;;;4993374;28;20038;-82
2021/04/21 09:52:11;;;;;;;1.67;0.77;;;21.20;43.50;;;;;;4991457;28;20046;-83
2021/04/21 09:54:41;;;;;;;3.20;0.82;;;21.20;43.50;;;;;;4992933;28;20030;-83
2021/04/21 09:57:24;;;;;;;3.42;0.70;;;21.30;43.40;;;;;;4975611;28;20529;-83
2021/04/21 09:59:55;;;;;;;3.33;0.63;;;21.50;43.10;;;;;;4992132;28;20046;-86
2021/04/21 10:02:32;;;;;;;6.78;0.70;;;21.70;42.90;;;;;;4989183;28;20038;-87
2021/04/21 10:05:17;;;;;;;0.95;0.40;;;21.90;42.70;;;;;;4974745;28;20033;-91
2021/04/21 10:07:43;;;;;;;1.33;0.52;;;22.00;42.30;;;;;;4974892;28;20402;-82
2021/04/21 10:10:10;;;;;;;1.33;0.60;;;22.00;42.30;;;;;;4974583;28;20368;-84
2021/04/21 10:12:36;;;;;;;0.85;0.50;;;22.10;42.30;;;;;;4993378;28;20034;-83
2021/04/21 10:15:08;;;;;;;4.38;0.98;;;22.20;41.70;;;;;;4990835;28;20026;-84
2021/04/21 10:17:41;;;;;;;1.98;0.17;;;22.10;41.70;;;;;;4983309;28;20026;-83
2021/04/21 10:20:10;;;;;;;1.90;1.08;;;22.10;41.40;;;;;;4970407;28;20415;-85
2021/04/21 10:22:36;;;;;;;1.50;0.40;;;22.10;41.40;;;;;;4991483;28;20030;-84
2021/04/21 10:25:03;;;;;;;0.68;0.20;;;22.10;41.30;;;;;;4989360;28;20034;-81
2021/04/21 10:27:29;;;;;;;0.32;0.10;;;22.30;41.00;;;;;;4991264;28;20037;-82
2021/04/21 10:29:55;;;;;;;1.17;0.45;;;22.40;40.70;;;;;;4990670;28;20037;-82
2021/04/21 10:32:21;;;;;;;0.80;0.43;;;22.50;40.60;;;;;;4989570;28;20398;-82
2021/04/21 10:34:47;;;;;;;1.08;0.13;;;22.50;40.50;;;;;;4991399;28;20419;-80
2021/04/21 10:37:14;;;;;;;0.00;0.00;;;22.50;40.20;;;;;;4975443;28;20388;-81
2021/04/21 10:39:42;;;;;;;1.20;0.40;;;22.50;40.00;;;;;;4988619;28;20484;-82
2021/04/21 10:42:16;;;;;;;1.88;0.45;;;22.50;39.80;;;;;;4995147;28;20027;-81
2021/04/21 10:44:45;;;;;;;1.08;0.30;;;22.60;39.10;;;;;;4994571;28;20038;-81
2021/04/21 10:47:16;;;;;;;1.65;0.20;;;22.50;38.90;;;;;;4992818;28;20046;-81
2021/04/21 10:49:48;;;;;;;0.40;0.20;;;22.60;38.60;;;;;;4993296;28;20041;-82
2021/04/21 10:52:26;;;;;;;0.22;0.10;;;22.70;38.30;;;;;;4993403;28;20423;-80
2021/04/21 10:54:58;;;;;;;0.22;0.10;;;22.60;37.70;;;;;;4994175;28;20042;-82
2021/04/21 10:57:28;;;;;;;2.10;0.30;;;22.50;37.60;;;;;;4996136;28;20026;-84
2021/04/21 11:00:13;;;;;;;1.95;0.22;;;22.50;37.40;;;;;;4977682;28;20555;-81
2021/04/21 11:05:13;;;;;;;1.27;0.73;;;22.60;36.70;;;;;;4994606;28;20048;-82
2021/04/21 11:07:40;;;;;;;0.40;0.10;;;22.50;36.20;;;;;;4993893;28;20034;-82
2021/04/21 11:10:07;;;;;;;1.95;0.68;;;22.50;36.00;;;;;;4993966;28;20041;-81
2021/04/21 11:12:52;;;;;;;1.50;0.25;;;22.50;35.70;;;;;;4994974;28;20034;-82
2021/04/21 11:15:45;;;;;;;0.08;0.00;;;22.40;35.50;;;;;;4975914;28;20403;-81
2021/04/21 11:18:11;;;;;;;0.17;0.10;;;22.40;35.20;;;;;;4992638;28;20034;-82
2021/04/21 11:20:46;;;;;;;1.92;0.63;;;22.40;35.00;;;;;;4994274;28;20042;-81
2021/04/21 11:23:57;;;;;;;3.70;0.45;;;22.50;34.80;;;;;;4995037;28;20056;-81
2021/04/21 11:26:24;;;;;;;0.05;0.03;;;22.60;34.60;;;;;;4993827;28;20054;-82
2021/04/21 11:29:16;;;;;;;0.70;0.40;;;22.70;33.70;;;;;;4993763;28;20026;-82
2021/04/21 11:31:42;;;;;;;0.35;0.10;;;22.70;33.60;;;;;;5007800;28;20377;-80
2021/04/21 11:34:33;;;;;;;1.33;0.00;;;22.70;33.70;;;;;;4994893;28;20049;-83
2021/04/21 11:37:05;;;;;;;0.60;0.35;;;22.80;33.50;;;;;;4993534;28;20030;-82
2021/04/21 11:39:43;;;;;;;0.45;0.30;;;22.90;33.30;;;;;;4989839;28;20035;-79
2021/04/21 11:42:20;;;;;;;0.28;0.13;;;23.00;33.20;;;;;;4993889;28;20400;-80
2021/04/21 11:45:17;;;;;;;0.35;0.15;;;23.00;32.50;;;;;;4994376;28;20031;-80
2021/04/21 11:47:49;;;;;;;0.45;0.20;;;23.00;32.70;;;;;;4977753;28;20050;-81
2021/04/21 11:50:22;;;;;;;1.00;0.25;;;23.10;32.80;;;;;;4991994;28;20038;-80
2021/04/21 11:52:58;;;;;;;0.70;0.38;;;23.30;32.60;;;;;;4975782;28;20049;-80
2021/04/21 11:55:27;;;;;;;0.57;0.25;;;23.40;32.40;;;;;;4993097;28;20038;-81
2021/04/21 11:57:58;;;;;;;1.75;0.10;;;23.30;32.40;;;;;;4994149;28;20030;-81
2021/04/21 12:00:28;;;;;;;1.27;0.45;;;23.20;32.50;;;;;;4975512;28;20503;-80
2021/04/21 12:02:55;;;;;;;0.75;0.20;;;23.20;32.30;;;;;;4994346;28;20038;-80
2021/04/21 12:05:22;;;;;;;0.50;0.10;;;23.30;32.10;;;;;;4993041;28;20375;-80
2021/04/21 12:07:48;;;;;;;0.10;0.00;;;23.30;32.00;;;;;;4975979;28;20096;-80
2021/04/21 12:10:21;;;;;;;0.40;0.20;;;23.30;31.80;;;;;;4992922;28;20400;-80
2021/04/21 12:12:47;;;;;;;1.10;0.20;;;23.20;31.70;;;;;;4992106;28;20035;-80
2021/04/21 12:15:13;;;;;;;2.20;0.40;;;23.10;31.80;;;;;;4992314;28;20026;-80
2021/04/21 12:17:53;;;;;;;0.75;0.32;;;23.10;31.50;;;;;;4993131;28;20510;-80
2021/04/21 12:20:21;;;;;;;1.27;0.52;;;23.10;31.30;;;;;;4991476;28;21781;-80
2021/04/21 12:22:47;;;;;;;0.35;0.00;;;23.10;31.30;;;;;;4991806;28;20032;-80
2021/04/21 12:25:14;;;;;;;0.05;0.00;;;23.00;30.90;;;;;;4973538;28;20039;-81
2021/04/21 12:27:41;;;;;;;0.52;0.10;;;22.90;30.70;;;;;;4985391;28;20031;-80
2021/04/21 12:30:15;;;;;;;0.25;0.08;;;22.80;30.70;;;;;;4993789;28;20026;-81
2021/04/21 12:32:41;;;;;;;0.85;0.08;;;22.80;30.40;;;;;;4993331;28;20475;-80
2021/04/21 12:35:08;;;;;;;0.75;0.10;;;22.90;30.30;;;;;;4991943;28;20499;-82
2021/04/21 12:37:37;;;;;;;5.82;0.50;;;23.00;30.30;;;;;;4960390;28;20057;-80
2021/04/21 12:40:24;;;;;;;0.08;0.08;;;23.00;30.00;;;;;;4993423;28;20484;-80
2021/04/21 12:42:51;;;;;;;1.02;0.20;;;23.10;30.00;;;;;;4991455;28;20038;-81
2021/04/21 12:45:24;;;;;;;0.03;0.00;;;23.20;30.00;;;;;;4991380;28;20389;-80
2021/04/21 12:47:51;;;;;;;1.55;0.50;;;23.40;29.90;;;;;;4992061;28;20046;-80
2021/04/21 12:50:17;;;;;;;0.95;0.10;;;23.40;29.70;;;;;;4989139;28;20507;-81
2021/04/21 12:52:43;;;;;;;3.58;0.45;;;23.40;29.80;;;;;;4991933;28;20030;-78
2021/04/21 12:55:10;;;;;;;0.93;0.25;;;23.40;29.80;;;;;;4991986;28;20483;-81
2021/04/21 12:57:51;;;;;;;2.10;0.50;;;23.40;29.60;;;;;;4990783;28;20038;-80
2021/04/21 13:00:18;;;;;;;0.13;0.00;;;23.20;29.60;;;;;;4990715;28;20558;-79
2021/04/21 13:02:45;;;;;;;3.47;0.30;;;23.00;29.80;;;;;;4991189;28;20033;-81
2021/04/21 13:05:12;;;;;;;14.27;0.70;;;23.00;30.00;;;;;;4990733;28;20361;-82
2021/04/21 13:07:38;;;;;;;6.10;0.10;;;23.10;30.00;;;;;;4975456;28;20031;-80
2021/04/21 13:10:06;;;;;;;0.68;0.47;;;23.30;29.90;;;;;;4991499;28;20034;-81
2021/04/21 13:12:32;;;;;;;0.90;0.30;;;23.40;29.70;;;;;;4990403;28;20026;-79
2021/04/21 13:15:08;;;;;;;2.08;0.22;;;23.30;29.50;;;;;;4991977;28;20069;-80
2021/04/21 13:17:54;;;;;;;0.88;0.20;;;23.20;29.70;;;;;;4988352;28;20052;-82